Time;durP1;ratioP1;P1;durP2;ratioP2;P2;SDS_P1;SDS_P2;PMS_P1;PMS_P2;Temp;Humidity;BMP_temperature;BMP_pressure;BME280_temperature;BME280_humidity;BME280_pressure;Samples;Min_cycle;Max_cycle;Signal;HPM_P1;HPM_P2
2022/10/26 00:01:18;;;;;;;;;;;;;;;;;;5114277;28;20011;-54
2022/10/26 00:03:46;;;;;;;;;;;;;;;;;;5114108;28;20392;-53
2022/10/26 00:06:13;;;;;;;;;;;;;;;;;;5113877;28;19928;-53
2022/10/26 00:08:40;;;;;;;;;;;;;;;;;;5113935;28;19928;-53
2022/10/26 00:11:07;;;;;;;;;;;;;;;;;;5113663;28;19924;-54
2022/10/26 00:13:36;;;;;;;;;;;;;;;;;;5114153;28;20408;-55
2022/10/26 00:16:07;;;;;;;;;;;;;;;;;;5113769;28;19935;-52
2022/10/26 00:18:33;;;;;;;;;;;;;;;;;;5113620;28;19923;-56
2022/10/26 00:21:02;;;;;;;;;;;;;;;;;;5113545;28;19993;-56
2022/10/26 00:23:29;;;;;;;;;;;;;;;;;;5113938;28;19981;-54
2022/10/26 00:25:56;;;;;;;;;;;;;;;;;;5113953;28;19923;-56
2022/10/26 00:28:23;;;;;;;;;;;;;;;;;;5113634;28;19928;-52
2022/10/26 00:30:51;;;;;;;;;;;;;;;;;;5113502;28;19927;-55
2022/10/26 00:33:17;;;;;;;;;;;;;;;;;;5113774;28;20346;-55
2022/10/26 00:35:46;;;;;;;;;;;;;;;;;;5113464;28;19927;-52
2022/10/26 00:38:13;;;;;;;;;;;;;;;;;;5113311;28;19928;-52
2022/10/26 00:40:40;;;;;;;;;;;;;;;;;;5113477;28;20396;-56
2022/10/26 00:43:09;;;;;;;;;;;;;;;;;;5113535;28;19930;-54
2022/10/26 00:45:36;;;;;;;;;;;;;;;;;;5113566;28;19923;-55
2022/10/26 00:48:06;;;;;;;;;;;;;;;;;;5113391;28;19927;-53
2022/10/26 00:50:35;;;;;;;;;;;;;;;;;;5113207;28;19982;-52
2022/10/26 00:53:03;;;;;;;;;;;;;;;;;;5113180;28;19969;-53
2022/10/26 00:55:32;;;;;;;;;;;;;;;;;;5113326;28;19947;-56
2022/10/26 00:57:59;;;;;;;;;;;;;;;;;;5113207;28;19924;-53
2022/10/26 01:00:25;;;;;;;;;;;;;;;;;;5113034;28;20448;-54
2022/10/26 01:02:53;;;;;;;;;;;;;;;;;;5108017;28;19931;-53
2022/10/26 01:05:21;;;;;;;;;;;;;;;;;;5092681;28;19977;-52
2022/10/26 01:07:48;;;;;;;;;;;;;;;;;;5092576;28;19927;-52
2022/10/26 01:10:14;;;;;;;;;;;;;;;;;;5092490;28;19924;-54
2022/10/26 01:12:41;;;;;;;;;;;;;;;;;;5092716;28;20011;-53
2022/10/26 01:15:08;;;;;;;;;;;;;;;;;;5092766;28;19928;-55
2022/10/26 01:17:43;;;;;;;;;;;;;;;;;;5092355;28;19924;-56
2022/10/26 01:20:21;;;;;;;;;;;;;;;;;;5092360;28;19924;-56
2022/10/26 01:22:51;;;;;;;;;;;;;;;;;;5092529;28;19924;-56
2022/10/26 01:25:27;;;;;;;;;;;;;;;;;;5092724;28;19928;-55
2022/10/26 01:27:54;;;;;;;;;;;;;;;;;;5092386;28;19924;-55
2022/10/26 01:30:30;;;;;;;;;;;;;;;;;;5092500;28;20358;-53
2022/10/26 01:33:05;;;;;;;;;;;;;;;;;;5092509;28;19931;-55
2022/10/26 01:35:33;;;;;;;;;;;;;;;;;;5092551;28;19978;-55
2022/10/26 01:38:04;;;;;;;;;;;;;;;;;;5092358;28;19924;-56
2022/10/26 01:40:34;;;;;;;;;;;;;;;;;;5092309;28;19978;-54
2022/10/26 01:43:03;;;;;;;;;;;;;;;;;;5092940;28;19924;-53
2022/10/26 01:45:32;;;;;;;;;;;;;;;;;;5092219;28;19931;-51
2022/10/26 01:47:59;;;;;;;;;;;;;;;;;;5091983;28;19924;-53
2022/10/26 01:50:27;;;;;;;;;;;;;;;;;;5092172;28;19925;-52
2022/10/26 01:52:54;;;;;;;;;;;;;;;;;;5092150;28;20001;-56
2022/10/26 01:55:40;;;;;;;;;;;;;;;;;;5092100;28;19978;-53
2022/10/26 01:58:13;;;;;;;;;;;;;;;;;;5092150;28;19924;-52
2022/10/26 02:00:43;;;;;;;;;;;;;;;;;;5092202;28;19993;-52
2022/10/26 02:03:15;;;;;;;;;;;;;;;;;;5100113;28;19931;-54
2022/10/26 02:05:48;;;;;;;;;;;;;;;;;;5116492;28;19932;-55
2022/10/26 02:08:20;;;;;;;;;;;;;;;;;;5116505;28;19923;-53
2022/10/26 02:10:52;;;;;;;;;;;;;;;;;;5116612;28;19931;-55
2022/10/26 02:13:21;;;;;;;;;;;;;;;;;;5116358;28;19924;-56
2022/10/26 02:15:53;;;;;;;;;;;;;;;;;;5116192;28;19928;-56
2022/10/26 02:18:25;;;;;;;;;;;;;;;;;;5116088;28;19923;-54
2022/10/26 02:20:53;;;;;;;;;;;;;;;;;;5116055;28;19928;-53
2022/10/26 02:23:21;;;;;;;;;;;;;;;;;;5116303;28;19930;-55
2022/10/26 02:25:50;;;;;;;;;;;;;;;;;;5116200;28;19925;-52
2022/10/26 02:28:18;;;;;;;;;;;;;;;;;;5115961;27;19927;-56
2022/10/26 02:30:46;;;;;;;;;;;;;;;;;;5115744;28;19923;-52
2022/10/26 02:33:15;;;;;;;;;;;;;;;;;;5115754;28;19924;-54
2022/10/26 02:35:43;;;;;;;;;;;;;;;;;;5115803;28;19992;-53
2022/10/26 02:38:10;;;;;;;;;;;;;;;;;;5115759;28;19977;-56
2022/10/26 02:40:37;;;;;;;;;;;;;;;;;;5115650;28;19996;-56
2022/10/26 02:43:06;;;;;;;;;;;;;;;;;;5115516;28;19975;-53
2022/10/26 02:45:34;;;;;;;;;;;;;;;;;;5115445;28;19924;-55
2022/10/26 02:48:01;;;;;;;;;;;;;;;;;;5115327;28;19969;-55
2022/10/26 02:50:33;;;;;;;;;;;;;;;;;;5115253;28;19923;-52
2022/10/26 02:53:02;;;;;;;;;;;;;;;;;;5115565;28;20308;-56
2022/10/26 02:55:31;;;;;;;;;;;;;;;;;;5115207;28;20342;-56
2022/10/26 02:57:59;;;;;;;;;;;;;;;;;;5115359;28;20376;-53
2022/10/26 03:00:26;;;;;;;;;;;;;;;;;;5115417;27;19924;-51
2022/10/26 03:02:53;;;;;;;;;;;;;;;;;;5110232;28;19924;-52
2022/10/26 03:05:21;;;;;;;;;;;;;;;;;;5094830;28;19924;-53
2022/10/26 03:07:49;;;;;;;;;;;;;;;;;;5094448;28;19969;-51
2022/10/26 03:10:15;;;;;;;;;;;;;;;;;;5094703;28;20292;-52
2022/10/26 03:12:42;;;;;;;;;;;;;;;;;;5094751;28;20364;-54
2022/10/26 03:15:09;;;;;;;;;;;;;;;;;;5094689;28;19931;-51
2022/10/26 03:17:35;;;;;;;;;;;;;;;;;;5094648;28;19924;-53
2022/10/26 03:20:02;;;;;;;;;;;;;;;;;;5094655;28;19931;-52
2022/10/26 03:22:29;;;;;;;;;;;;;;;;;;5094478;28;19924;-54
2022/10/26 03:24:57;;;;;;;;;;;;;;;;;;5094458;28;19993;-51
2022/10/26 03:27:23;;;;;;;;;;;;;;;;;;5094239;28;19945;-52
2022/10/26 03:29:50;;;;;;;;;;;;;;;;;;5094403;28;19977;-53
2022/10/26 03:32:16;;;;;;;;;;;;;;;;;;5094196;28;19969;-54
2022/10/26 03:34:43;;;;;;;;;;;;;;;;;;5094391;28;20347;-51
2022/10/26 03:37:09;;;;;;;;;;;;;;;;;;5094177;28;20417;-53
2022/10/26 03:39:36;;;;;;;;;;;;;;;;;;5093975;28;19969;-54
2022/10/26 03:42:04;;;;;;;;;;;;;;;;;;5094212;28;19928;-54
2022/10/26 03:44:31;;;;;;;;;;;;;;;;;;5094093;28;19941;-54
2022/10/26 03:46:57;;;;;;;;;;;;;;;;;;5093696;28;20031;-54
2022/10/26 03:49:24;;;;;;;;;;;;;;;;;;5093603;28;19923;-54
2022/10/26 03:51:50;;;;;;;;;;;;;;;;;;5093738;28;19924;-52
2022/10/26 03:54:17;;;;;;;;;;;;;;;;;;5093681;28;19931;-51
2022/10/26 03:56:43;;;;;;;;;;;;;;;;;;5093698;28;19931;-54
2022/10/26 03:59:11;;;;;;;;;;;;;;;;;;5093569;28;19931;-54
2022/10/26 04:01:38;;;;;;;;;;;;;;;;;;5093680;28;19928;-53
2022/10/26 04:04:05;;;;;;;;;;;;;;;;;;5108737;28;19927;-54
2022/10/26 04:06:31;;;;;;;;;;;;;;;;;;5114269;28;19988;-55
2022/10/26 04:09:01;;;;;;;;;;;;;;;;;;5114030;28;20346;-52
2022/10/26 04:11:27;;;;;;;;;;;;;;;;;;5114050;28;19923;-54
2022/10/26 04:13:54;;;;;;;;;;;;;;;;;;5114509;28;19924;-54
2022/10/26 04:16:22;;;;;;;;;;;;;;;;;;5113818;28;19976;-54
2022/10/26 04:18:48;;;;;;;;;;;;;;;;;;5113693;28;19928;-52
2022/10/26 04:21:15;;;;;;;;;;;;;;;;;;5113904;28;20004;-51
2022/10/26 04:23:41;;;;;;;;;;;;;;;;;;5113752;28;20346;-51
2022/10/26 04:26:08;;;;;;;;;;;;;;;;;;5112836;28;19924;-51
2022/10/26 04:28:34;;;;;;;;;;;;;;;;;;5113479;28;19931;-55
2022/10/26 04:31:01;;;;;;;;;;;;;;;;;;5113436;28;19927;-52
2022/10/26 04:33:29;;;;;;;;;;;;;;;;;;5113585;28;19924;-52
2022/10/26 04:35:58;;;;;;;;;;;;;;;;;;5114020;28;20420;-54
2022/10/26 04:38:25;;;;;;;;;;;;;;;;;;5113308;28;19924;-54
2022/10/26 04:40:51;;;;;;;;;;;;;;;;;;5113322;28;20376;-54
2022/10/26 04:43:18;;;;;;;;;;;;;;;;;;5113588;28;20270;-54
2022/10/26 04:45:44;;;;;;;;;;;;;;;;;;5113232;28;19924;-54
2022/10/26 04:48:11;;;;;;;;;;;;;;;;;;5112968;28;19928;-55
2022/10/26 04:50:40;;;;;;;;;;;;;;;;;;5113075;28;19924;-56
2022/10/26 04:53:07;;;;;;;;;;;;;;;;;;5112701;28;19972;-57
2022/10/26 04:55:33;;;;;;;;;;;;;;;;;;5113353;28;19924;-55
2022/10/26 04:58:00;;;;;;;;;;;;;;;;;;5112386;28;19977;-57
2022/10/26 05:00:27;;;;;;;;;;;;;;;;;;5112646;28;19992;-54
2022/10/26 05:02:58;;;;;;;;;;;;;;;;;;5107761;27;19924;-57
2022/10/26 05:05:25;;;;;;;;;;;;;;;;;;5092622;28;19928;-58
2022/10/26 05:07:55;;;;;;;;;;;;;;;;;;5091902;28;20331;-56
2022/10/26 05:10:21;;;;;;;;;;;;;;;;;;5099047;28;19938;-57
2022/10/26 05:12:50;;;;;;;;;;;;;;;;;;5112699;28;19931;-56
2022/10/26 05:15:17;;;;;;;;;;;;;;;;;;5112762;28;19928;-55
2022/10/26 05:17:43;;;;;;;;;;;;;;;;;;5112727;28;19924;-55
2022/10/26 05:20:12;;;;;;;;;;;;;;;;;;5112456;28;19984;-54
2022/10/26 05:22:39;;;;;;;;;;;;;;;;;;5112928;28;20372;-55
2022/10/26 05:25:08;;;;;;;;;;;;;;;;;;5113098;28;20048;-55
2022/10/26 05:27:34;;;;;;;;;;;;;;;;;;5108768;28;20624;-55
2022/10/26 05:30:01;;;;;;;;;;;;;;;;;;5101328;28;20139;-56
2022/10/26 05:32:27;;;;;;;;;;;;;;;;;;5101917;28;20353;-56
2022/10/26 05:34:54;;;;;;;;;;;;;;;;;;5103117;28;19985;-56
2022/10/26 05:37:20;;;;;;;;;;;;;;;;;;5101873;28;20307;-57
2022/10/26 05:39:47;;;;;;;;;;;;;;;;;;5106049;28;20309;-56
2022/10/26 05:42:15;;;;;;;;;;;;;;;;;;5096314;28;20335;-58
2022/10/26 05:44:41;;;;;;;;;;;;;;;;;;5096367;28;20151;-56
2022/10/26 05:47:08;;;;;;;;;;;;;;;;;;5096203;28;19993;-58
2022/10/26 05:49:34;;;;;;;;;;;;;;;;;;5096130;28;19924;-56
2022/10/26 05:52:01;;;;;;;;;;;;;;;;;;5096355;28;19924;-56
2022/10/26 05:54:28;;;;;;;;;;;;;;;;;;5096258;28;19928;-55
2022/10/26 05:56:54;;;;;;;;;;;;;;;;;;5096328;28;19924;-55
2022/10/26 05:59:23;;;;;;;;;;;;;;;;;;5096111;28;19925;-54
2022/10/26 06:01:54;;;;;;;;;;;;;;;;;;5095921;28;19924;-55
2022/10/26 06:04:26;;;;;;;;;;;;;;;;;;5113422;28;19969;-57
2022/10/26 06:06:54;;;;;;;;;;;;;;;;;;5116169;28;19924;-57
2022/10/26 06:09:21;;;;;;;;;;;;;;;;;;5116509;28;19930;-57
2022/10/26 06:11:47;;;;;;;;;;;;;;;;;;5116153;28;19931;-56
2022/10/26 06:14:14;;;;;;;;;;;;;;;;;;5116149;28;19928;-55
2022/10/26 06:16:50;;;;;;;;;;;;;;;;;;5116171;28;19931;-57
2022/10/26 06:19:22;;;;;;;;;;;;;;;;;;5116070;28;20396;-58
2022/10/26 06:21:56;;;;;;;;;;;;;;;;;;5115653;28;19928;-56
2022/10/26 06:24:27;;;;;;;;;;;;;;;;;;5116431;28;20292;-54
2022/10/26 06:26:59;;;;;;;;;;;;;;;;;;5116081;28;19927;-55
2022/10/26 06:29:32;;;;;;;;;;;;;;;;;;5116008;28;19923;-55
2022/10/26 06:32:00;;;;;;;;;;;;;;;;;;5115808;28;19930;-57
2022/10/26 06:34:28;;;;;;;;;;;;;;;;;;5115777;28;19927;-56
2022/10/26 06:36:57;;;;;;;;;;;;;;;;;;5115760;28;19928;-55
2022/10/26 06:39:25;;;;;;;;;;;;;;;;;;5115981;28;19981;-54
2022/10/26 06:41:52;;;;;;;;;;;;;;;;;;5115776;28;19923;-58
2022/10/26 06:44:21;;;;;;;;;;;;;;;;;;5115729;28;20441;-57
2022/10/26 06:46:48;;;;;;;;;;;;;;;;;;5115505;28;19932;-54
2022/10/26 06:49:19;;;;;;;;;;;;;;;;;;5115048;28;19949;-56
2022/10/26 06:51:49;;;;;;;;;;;;;;;;;;5115908;28;19924;-54
2022/10/26 06:54:18;;;;;;;;;;;;;;;;;;5115520;28;19924;-56
2022/10/26 06:56:45;;;;;;;;;;;;;;;;;;5115501;28;19928;-56
2022/10/26 06:59:15;;;;;;;;;;;;;;;;;;5115213;28;19934;-56
2022/10/26 07:01:41;;;;;;;;;;;;;;;;;;5115185;28;19924;-53
2022/10/26 07:04:08;;;;;;;;;;;;;;;;;;5099813;28;19928;-57
2022/10/26 07:06:36;;;;;;;;;;;;;;;;;;5094777;28;19924;-55
2022/10/26 07:09:02;;;;;;;;;;;;;;;;;;5094493;28;19978;-55
2022/10/26 07:11:29;;;;;;;;;;;;;;;;;;5097259;28;19942;-57
2022/10/26 07:13:56;;;;;;;;;;;;;;;;;;5111750;28;19928;-57
2022/10/26 07:16:22;;;;;;;;;;;;;;;;;;5113126;28;19923;-56
2022/10/26 07:18:49;;;;;;;;;;;;;;;;;;5112963;28;19923;-56
2022/10/26 07:21:15;;;;;;;;;;;;;;;;;;5112560;28;19924;-58
2022/10/26 07:23:43;;;;;;;;;;;;;;;;;;5113019;28;19931;-56
2022/10/26 07:26:10;;;;;;;;;;;;;;;;;;5112568;28;19924;-57
2022/10/26 07:28:36;;;;;;;;;;;;;;;;;;5113015;28;19924;-56
2022/10/26 07:31:04;;;;;;;;;;;;;;;;;;5112526;28;19999;-56
2022/10/26 07:33:31;;;;;;;;;;;;;;;;;;5113246;27;19924;-55
2022/10/26 07:35:58;;;;;;;;;;;;;;;;;;5112783;28;19927;-54
2022/10/26 07:38:25;;;;;;;;;;;;;;;;;;5112352;28;19969;-57
2022/10/26 07:40:54;;;;;;;;;;;;;;;;;;5129366;27;19976;-57
2022/10/26 07:43:21;;;;;;;;;;;;;;;;;;5130087;27;19931;-54
2022/10/26 07:45:49;;;;;;;;;;;;;;;;;;5110721;28;19936;-54
2022/10/26 07:48:15;;;;;;;;;;;;;;;;;;5112063;28;19928;-56
2022/10/26 07:50:42;;;;;;;;;;;;;;;;;;5112153;27;20388;-54
2022/10/26 07:53:08;;;;;;;;;;;;;;;;;;5112214;28;19932;-56
2022/10/26 07:55:35;;;;;;;;;;;;;;;;;;5112178;28;19992;-57
2022/10/26 07:58:03;;;;;;;;;;;;;;;;;;5102012;28;19928;-57
2022/10/26 08:00:29;;;;;;;;;;;;;;;;;;5090868;28;19924;-56
2022/10/26 08:02:56;;;;;;;;;;;;;;;;;;5097093;28;19924;-56
2022/10/26 08:05:23;;;;;;;;;;;;;;;;;;5112683;28;19928;-59
2022/10/26 08:07:49;;;;;;;;;;;;;;;;;;5112005;28;19923;-62
2022/10/26 08:10:16;;;;;;;;;;;;;;;;;;5096721;28;19936;-58
2022/10/26 08:12:43;;;;;;;;;;;;;;;;;;5091118;28;19931;-57
2022/10/26 08:15:11;;;;;;;;;;;;;;;;;;5099600;28;19924;-58
2022/10/26 08:17:38;;;;;;;;;;;;;;;;;;5101709;28;19958;-57
2022/10/26 08:20:05;;;;;;;;;;;;;;;;;;5101000;28;19978;-56
2022/10/26 08:22:31;;;;;;;;;;;;;;;;;;5101896;28;19927;-57
2022/10/26 08:24:58;;;;;;;;;;;;;;;;;;5102017;28;19924;-57
2022/10/26 08:27:25;;;;;;;;;;;;;;;;;;5099976;28;19969;-55
2022/10/26 08:29:51;;;;;;;;;;;;;;;;;;5101679;28;19923;-57
2022/10/26 08:32:19;;;;;;;;;;;;;;;;;;5101324;28;19924;-54
2022/10/26 08:34:45;;;;;;;;;;;;;;;;;;5100052;28;20342;-54
2022/10/26 08:37:12;;;;;;;;;;;;;;;;;;5101310;28;20384;-56
2022/10/26 08:39:39;;;;;;;;;;;;;;;;;;5093626;28;19982;-56
2022/10/26 08:42:07;;;;;;;;;;;;;;;;;;5092430;28;20400;-55
2022/10/26 08:44:37;;;;;;;;;;;;;;;;;;5109400;28;20348;-56
2022/10/26 08:47:06;;;;;;;;;;;;;;;;;;5111022;28;20436;-56
2022/10/26 08:49:38;;;;;;;;;;;;;;;;;;5090809;28;19928;-56
2022/10/26 08:52:05;;;;;;;;;;;;;;;;;;5102963;28;20201;-56
2022/10/26 08:54:37;;;;;;;;;;;;;;;;;;5111306;28;19931;-55
2022/10/26 08:57:10;;;;;;;;;;;;;;;;;;5101731;28;19932;-54
2022/10/26 08:59:38;;;;;;;;;;;;;;;;;;5090701;28;19978;-56
2022/10/26 09:02:11;;;;;;;;;;;;;;;;;;5090140;28;20381;-57
2022/10/26 09:04:39;;;;;;;;;;;;;;;;;;5110639;28;20433;-58
2022/10/26 09:07:08;;;;;;;;;;;;;;;;;;5110701;28;19947;-55
2022/10/26 09:09:39;;;;;;;;;;;;;;;;;;5110970;28;19927;-57
2022/10/26 09:12:08;;;;;;;;;;;;;;;;;;5110600;28;19931;-57
2022/10/26 09:14:39;;;;;;;;;;;;;;;;;;5097762;28;20024;-58
2022/10/26 09:17:11;;;;;;;;;;;;;;;;;;5102956;28;20006;-56
2022/10/26 09:19:53;;;;;;;;;;;;;;;;;;5110753;28;19924;-57
2022/10/26 09:22:23;;;;;;;;;;;;;;;;;;5102863;28;19928;-55
2022/10/26 09:24:53;;;;;;;;;;;;;;;;;;5109934;28;22019;-57
2022/10/26 09:27:21;;;;;;;;;;;;;;;;;;5110591;28;19930;-57
2022/10/26 09:29:48;;;;;;;;;;;;;;;;;;5110720;28;19924;-57
2022/10/26 09:32:16;;;;;;;;;;;;;;;;;;5110779;28;19923;-57
2022/10/26 09:34:46;;;;;;;;;;;;;;;;;;5107157;28;19924;-55
2022/10/26 09:37:15;;;;;;;;;;;;;;;;;;5090210;28;19981;-56
2022/10/26 09:39:47;;;;;;;;;;;;;;;;;;5090174;28;19932;-57
2022/10/26 09:42:16;;;;;;;;;;;;;;;;;;5090654;28;19924;-57
2022/10/26 09:44:45;;;;;;;;;;;;;;;;;;5090366;28;19924;-56
2022/10/26 09:47:15;;;;;;;;;;;;;;;;;;5090077;28;19924;-56
2022/10/26 09:49:47;;;;;;;;;;;;;;;;;;5090315;28;19928;-56
2022/10/26 09:52:14;;;;;;;;;;;;;;;;;;5089878;28;19935;-57
2022/10/26 09:54:40;;;;;;;;;;;;;;;;;;5090352;28;19932;-55
2022/10/26 09:57:09;;;;;;;;;;;;;;;;;;5095302;28;19924;-57
2022/10/26 09:59:38;;;;;;;;;;;;;;;;;;5101152;28;20223;-57
2022/10/26 10:02:31;;;;;;;;;;;;;;;;;;5097727;28;19927;-58
2022/10/26 10:04:58;;;;;;;;;;;;;;;;;;5101108;28;20433;-57
2022/10/26 10:07:24;;;;;;;;;;;;;;;;;;5098416;28;19924;-56
2022/10/26 10:10:05;;;;;;;;;;;;;;;;;;5100006;28;19924;-54
2022/10/26 10:12:33;;;;;;;;;;;;;;;;;;5100034;28;20384;-56
2022/10/26 10:15:00;;;;;;;;;;;;;;;;;;5098388;28;20397;-57
2022/10/26 10:17:27;;;;;;;;;;;;;;;;;;5100273;28;19928;-58
2022/10/26 10:19:54;;;;;;;;;;;;;;;;;;5100130;28;19969;-57
2022/10/26 10:22:24;;;;;;;;;;;;;;;;;;5095945;28;20045;-57
2022/10/26 10:24:54;;;;;;;;;;;;;;;;;;5091371;28;19977;-58
2022/10/26 10:27:22;;;;;;;;;;;;;;;;;;5098517;28;19980;-58
2022/10/26 10:29:50;;;;;;;;;;;;;;;;;;5104157;28;19928;-54
2022/10/26 10:32:19;;;;;;;;;;;;;;;;;;5103040;28;19924;-57
2022/10/26 10:34:46;;;;;;;;;;;;;;;;;;5101998;28;20006;-58
2022/10/26 10:37:22;;;;;;;;;;;;;;;;;;5103644;28;19927;-58
2022/10/26 10:39:48;;;;;;;;;;;;;;;;;;5103897;28;19927;-57
2022/10/26 10:42:17;;;;;;;;;;;;;;;;;;5108293;28;20445;-56
2022/10/26 10:44:45;;;;;;;;;;;;;;;;;;5093273;28;20400;-55
2022/10/26 10:47:19;;;;;;;;;;;;;;;;;;5093190;28;20019;-58
2022/10/26 10:49:50;;;;;;;;;;;;;;;;;;5093089;28;20392;-58
2022/10/26 10:52:22;;;;;;;;;;;;;;;;;;5092800;28;19977;-64
2022/10/26 10:54:50;;;;;;;;;;;;;;;;;;5093285;28;20354;-56
2022/10/26 10:57:22;;;;;;;;;;;;;;;;;;5092427;28;20358;-58
2022/10/26 10:59:56;;;;;;;;;;;;;;;;;;5093316;28;19924;-59
2022/10/26 11:02:37;;;;;;;;;;;;;;;;;;5093025;28;19924;-69
2022/10/26 11:05:17;;;;;;;;;;;;;;;;;;5093151;28;19924;-56
2022/10/26 11:07:47;;;;;;;;;;;;;;;;;;5093095;28;19924;-57
2022/10/26 11:10:15;;;;;;;;;;;;;;;;;;5092838;28;19969;-57
2022/10/26 11:12:44;;;;;;;;;;;;;;;;;;5092901;28;20327;-58
2022/10/26 11:15:14;;;;;;;;;;;;;;;;;;5092863;28;20397;-58
2022/10/26 11:17:50;;;;;;;;;;;;;;;;;;5092610;28;19932;-58
2022/10/26 11:20:19;;;;;;;;;;;;;;;;;;5092948;28;19924;-54
2022/10/26 11:22:58;;;;;;;;;;;;;;;;;;5092854;28;19954;-57
2022/10/26 11:25:27;;;;;;;;;;;;;;;;;;5092485;28;20011;-58
2022/10/26 11:27:55;;;;;;;;;;;;;;;;;;5091273;28;20347;-57
2022/10/26 11:30:24;;;;;;;;;;;;;;;;;;5092289;28;20045;-57
2022/10/26 11:32:54;;;;;;;;;;;;;;;;;;5092871;28;19934;-56
2022/10/26 11:35:25;;;;;;;;;;;;;;;;;;5092585;28;19940;-57
2022/10/26 11:37:54;;;;;;;;;;;;;;;;;;5092576;28;20014;-56
2022/10/26 11:40:27;;;;;;;;;;;;;;;;;;5091955;28;19979;-57
2022/10/26 11:42:57;;;;;;;;;;;;;;;;;;5092456;28;19928;-57
2022/10/26 11:45:26;;;;;;;;;;;;;;;;;;5092730;28;19977;-57
2022/10/26 11:47:55;;;;;;;;;;;;;;;;;;5092381;28;19924;-56
2022/10/26 11:50:23;;;;;;;;;;;;;;;;;;5092003;28;19924;-53
2022/10/26 11:52:51;;;;;;;;;;;;;;;;;;5091520;28;19924;-54
2022/10/26 11:55:18;;;;;;;;;;;;;;;;;;5091817;28;19931;-57
2022/10/26 11:57:45;;;;;;;;;;;;;;;;;;5092432;28;19981;-56
2022/10/26 12:00:15;;;;;;;;;;;;;;;;;;5098592;28;20006;-57
2022/10/26 12:02:42;;;;;;;;;;;;;;;;;;5103948;28;19924;-55
2022/10/26 12:05:20;;;;;;;;;;;;;;;;;;5112680;28;19927;-57
2022/10/26 12:07:48;;;;;;;;;;;;;;;;;;5111742;28;19949;-57
2022/10/26 12:10:22;;;;;;;;;;;;;;;;;;5111810;28;19976;-57
2022/10/26 12:12:52;;;;;;;;;;;;;;;;;;5111930;28;19970;-58
2022/10/26 12:15:23;;;;;;;;;;;;;;;;;;5111797;28;20346;-58
2022/10/26 12:17:51;;;;;;;;;;;;;;;;;;5112038;28;19930;-56
2022/10/26 12:20:38;;;;;;;;;;;;;;;;;;5111838;28;19959;-56
2022/10/26 12:23:06;;;;;;;;;;;;;;;;;;5112494;28;19923;-56
2022/10/26 12:25:32;;;;;;;;;;;;;;;;;;5111821;28;19969;-57
2022/10/26 12:27:59;;;;;;;;;;;;;;;;;;5112363;28;19984;-56
2022/10/26 12:30:27;;;;;;;;;;;;;;;;;;5111692;28;19928;-54
2022/10/26 12:32:55;;;;;;;;;;;;;;;;;;5112154;28;20007;-54
2022/10/26 12:35:39;;;;;;;;;;;;;;;;;;5111352;28;19928;-55
2022/10/26 12:38:24;;;;;;;;;;;;;;;;;;5111413;28;19947;-54
2022/10/26 12:41:07;;;;;;;;;;;;;;;;;;5111171;28;19932;-56
2022/10/26 12:43:35;;;;;;;;;;;;;;;;;;5111737;28;19924;-56
2022/10/26 12:46:21;;;;;;;;;;;;;;;;;;5111345;28;19930;-55
2022/10/26 12:48:48;;;;;;;;;;;;;;;;;;5111076;28;20008;-56
2022/10/26 12:51:29;;;;;;;;;;;;;;;;;;5110849;28;19977;-52
2022/10/26 12:54:01;;;;;;;;;;;;;;;;;;5110997;28;19944;-56
2022/10/26 12:56:32;;;;;;;;;;;;;;;;;;5111435;28;20469;-55
2022/10/26 12:59:03;;;;;;;;;;;;;;;;;;5111191;28;20392;-53
2022/10/26 13:01:35;;;;;;;;;;;;;;;;;;5110964;28;19927;-56
2022/10/26 13:04:08;;;;;;;;;;;;;;;;;;5096255;28;20381;-56
2022/10/26 13:06:41;;;;;;;;;;;;;;;;;;5093146;28;20288;-56
2022/10/26 13:09:09;;;;;;;;;;;;;;;;;;5109744;28;19923;-55
2022/10/26 13:11:43;;;;;;;;;;;;;;;;;;5111067;28;19924;-56
2022/10/26 13:14:18;;;;;;;;;;;;;;;;;;5110233;28;19993;-56
2022/10/26 13:16:46;;;;;;;;;;;;;;;;;;5111158;28;19976;-56
2022/10/26 13:19:22;;;;;;;;;;;;;;;;;;5110863;28;19924;-56
2022/10/26 13:21:49;;;;;;;;;;;;;;;;;;5110762;28;19923;-54
2022/10/26 13:24:16;;;;;;;;;;;;;;;;;;5109917;28;19928;-51
2022/10/26 13:26:57;;;;;;;;;;;;;;;;;;5110877;28;19928;-57
2022/10/26 13:29:30;;;;;;;;;;;;;;;;;;5110220;28;19930;-56
2022/10/26 13:31:57;;;;;;;;;;;;;;;;;;5110858;28;19923;-55
2022/10/26 13:34:25;;;;;;;;;;;;;;;;;;5110779;28;20174;-56
2022/10/26 13:36:55;;;;;;;;;;;;;;;;;;5111302;28;20353;-55
2022/10/26 13:39:23;;;;;;;;;;;;;;;;;;5110729;28;19932;-57
2022/10/26 13:41:51;;;;;;;;;;;;;;;;;;5110792;28;19924;-56
2022/10/26 13:44:21;;;;;;;;;;;;;;;;;;5111137;28;19923;-56
2022/10/26 13:46:52;;;;;;;;;;;;;;;;;;5110840;28;19971;-57
2022/10/26 13:49:20;;;;;;;;;;;;;;;;;;5110626;28;19947;-56
2022/10/26 13:51:48;;;;;;;;;;;;;;;;;;5110645;28;19985;-56
2022/10/26 13:54:19;;;;;;;;;;;;;;;;;;5111097;28;19923;-56
2022/10/26 13:56:54;;;;;;;;;;;;;;;;;;5110478;28;19969;-57
2022/10/26 13:59:21;;;;;;;;;;;;;;;;;;5113376;28;19931;-57
2022/10/26 14:02:05;;;;;;;;;;;;;;;;;;5114735;28;20388;-55
2022/10/26 14:04:31;;;;;;;;;;;;;;;;;;5095705;28;20450;-52
2022/10/26 14:06:58;;;;;;;;;;;;;;;;;;5094135;28;19985;-56
2022/10/26 14:09:25;;;;;;;;;;;;;;;;;;5093958;28;20162;-55
2022/10/26 14:11:53;;;;;;;;;;;;;;;;;;5093724;28;19928;-55
2022/10/26 14:14:21;;;;;;;;;;;;;;;;;;5093777;28;19924;-56
2022/10/26 14:16:49;;;;;;;;;;;;;;;;;;5097555;28;19932;-53
2022/10/26 14:19:20;;;;;;;;;;;;;;;;;;5093701;28;19931;-56
2022/10/26 14:21:48;;;;;;;;;;;;;;;;;;5093850;28;20345;-52
2022/10/26 14:24:20;;;;;;;;;;;;;;;;;;5094158;28;19924;-54
2022/10/26 14:26:47;;;;;;;;;;;;;;;;;;5094511;28;19924;-53
2022/10/26 14:29:15;;;;;;;;;;;;;;;;;;5093261;28;19977;-52
2022/10/26 14:31:42;;;;;;;;;;;;;;;;;;5097888;28;19954;-56
2022/10/26 14:34:11;;;;;;;;;;;;;;;;;;5113115;28;19931;-56
2022/10/26 14:36:40;;;;;;;;;;;;;;;;;;5114047;28;19928;-57
2022/10/26 14:39:08;;;;;;;;;;;;;;;;;;5113645;28;19924;-54
2022/10/26 14:41:35;;;;;;;;;;;;;;;;;;5113435;28;19923;-55
2022/10/26 14:44:02;;;;;;;;;;;;;;;;;;5113750;28;20407;-55
2022/10/26 14:46:32;;;;;;;;;;;;;;;;;;5114064;28;19927;-54
2022/10/26 14:48:59;;;;;;;;;;;;;;;;;;5113746;28;19976;-55
2022/10/26 14:51:26;;;;;;;;;;;;;;;;;;5113552;28;19924;-54
2022/10/26 14:53:56;;;;;;;;;;;;;;;;;;5113764;28;20287;-55
2022/10/26 14:56:24;;;;;;;;;;;;;;;;;;5113694;28;19924;-58
2022/10/26 14:58:51;;;;;;;;;;;;;;;;;;5113867;28;19996;-57
2022/10/26 15:01:25;;;;;;;;;;;;;;;;;;5113591;28;19924;-56
2022/10/26 15:03:54;;;;;;;;;;;;;;;;;;5100553;28;19924;-56
2022/10/26 15:06:38;;;;;;;;;;;;;;;;;;5093296;28;19924;-55
2022/10/26 15:09:06;;;;;;;;;;;;;;;;;;5093194;28;20293;-56
2022/10/26 15:11:33;;;;;;;;;;;;;;;;;;5092455;28;19930;-57
2022/10/26 15:14:01;;;;;;;;;;;;;;;;;;5092485;28;19924;-53
2022/10/26 15:16:28;;;;;;;;;;;;;;;;;;5092384;28;19928;-55
2022/10/26 15:18:57;;;;;;;;;;;;;;;;;;5093343;28;19938;-56
2022/10/26 15:21:24;;;;;;;;;;;;;;;;;;5092335;28;19928;-57
2022/10/26 15:23:51;;;;;;;;;;;;;;;;;;5093073;28;20292;-56
2022/10/26 15:26:19;;;;;;;;;;;;;;;;;;5092746;28;19924;-57
2022/10/26 15:28:48;;;;;;;;;;;;;;;;;;5092375;28;19985;-56
2022/10/26 15:31:32;;;;;;;;;;;;;;;;;;5092360;28;19924;-56
2022/10/26 15:34:12;;;;;;;;;;;;;;;;;;5092773;28;19924;-55
2022/10/26 15:36:39;;;;;;;;;;;;;;;;;;5092586;28;20027;-56
2022/10/26 15:39:06;;;;;;;;;;;;;;;;;;5092168;28;19924;-52
2022/10/26 15:41:35;;;;;;;;;;;;;;;;;;5092119;28;19947;-56
2022/10/26 15:44:04;;;;;;;;;;;;;;;;;;5091921;28;19924;-57
2022/10/26 15:46:32;;;;;;;;;;;;;;;;;;5092499;28;19993;-54
2022/10/26 15:48:59;;;;;;;;;;;;;;;;;;5092203;28;20023;-55
2022/10/26 15:51:27;;;;;;;;;;;;;;;;;;5092220;28;20418;-57
2022/10/26 15:53:53;;;;;;;;;;;;;;;;;;5092232;28;19928;-56
2022/10/26 15:56:22;;;;;;;;;;;;;;;;;;5091975;28;19925;-56
2022/10/26 15:58:50;;;;;;;;;;;;;;;;;;5092351;28;19931;-52
2022/10/26 16:01:17;;;;;;;;;;;;;;;;;;5091803;28;19924;-56
2022/10/26 16:03:44;;;;;;;;;;;;;;;;;;5104151;28;19928;-56
2022/10/26 16:06:13;;;;;;;;;;;;;;;;;;5112347;28;19931;-56
2022/10/26 16:08:40;;;;;;;;;;;;;;;;;;5112406;28;19924;-55
2022/10/26 16:11:07;;;;;;;;;;;;;;;;;;5111847;28;19923;-55
2022/10/26 16:13:33;;;;;;;;;;;;;;;;;;5112188;28;20415;-56
2022/10/26 16:16:01;;;;;;;;;;;;;;;;;;5112193;28;19927;-57
2022/10/26 16:18:28;;;;;;;;;;;;;;;;;;5112025;28;19927;-57
2022/10/26 16:20:54;;;;;;;;;;;;;;;;;;5112054;28;19977;-57
2022/10/26 16:23:21;;;;;;;;;;;;;;;;;;5111694;28;19993;-56
2022/10/26 16:25:47;;;;;;;;;;;;;;;;;;5111652;27;20327;-57
2022/10/26 16:28:15;;;;;;;;;;;;;;;;;;5111760;28;19928;-58
2022/10/26 16:30:42;;;;;;;;;;;;;;;;;;5111875;28;19924;-55
2022/10/26 16:33:10;;;;;;;;;;;;;;;;;;5111705;28;19989;-55
2022/10/26 16:35:36;;;;;;;;;;;;;;;;;;5111852;28;19935;-55
2022/10/26 16:38:03;;;;;;;;;;;;;;;;;;5111439;28;19950;-56
2022/10/26 16:40:29;;;;;;;;;;;;;;;;;;5111344;28;19924;-56
2022/10/26 16:42:56;;;;;;;;;;;;;;;;;;5111644;28;19976;-56
2022/10/26 16:45:23;;;;;;;;;;;;;;;;;;5111631;28;20000;-58
2022/10/26 16:47:49;;;;;;;;;;;;;;;;;;5111533;28;19924;-56
2022/10/26 16:50:19;;;;;;;;;;;;;;;;;;5110993;28;19924;-57
2022/10/26 16:52:46;;;;;;;;;;;;;;;;;;5111420;28;20301;-56
2022/10/26 16:55:13;;;;;;;;;;;;;;;;;;5111451;27;20473;-57
2022/10/26 16:57:39;;;;;;;;;;;;;;;;;;5111249;28;19928;-55